Time;durP1;ratioP1;P1;durP2;ratioP2;P2;SDS_P1;SDS_P2;PMS_P1;PMS_P2;Temp;Humidity;BMP_temperature;BMP_pressure;BME280_temperature;BME280_humidity;BME280_pressure;Samples;Min_cycle;Max_cycle;Signal;HPM_P1;HPM_P2
2023/01/05 00:00:44;;;;;;;;;;;12.50;99.90;;;;;;5073579;28;20259;-79
2023/01/05 00:03:10;;;;;;;;;;;12.40;99.90;;;;;;5054276;28;20036;-78
2023/01/05 00:05:35;;;;;;;;;;;12.40;99.90;;;;;;5054633;28;19912;-79
2023/01/05 00:08:01;;;;;;;;;;;12.50;99.90;;;;;;5071259;28;19908;-79
2023/01/05 00:24:14;;;;;;;;;;;12.40;99.90;;;;;;5073253;28;20508;-77
2023/01/05 00:26:40;;;;;;;;;;;12.40;99.90;;;;;;5055733;28;19909;-78
2023/01/05 00:29:06;;;;;;;;;;;12.40;99.90;;;;;;5072271;28;20428;-79
2023/01/05 00:31:31;;;;;;;;;;;12.40;99.90;;;;;;5073138;28;19971;-79
2023/01/05 00:33:56;;;;;;;;;;;12.40;99.90;;;;;;5073607;28;19995;-78
2023/01/05 00:36:22;;;;;;;;;;;12.30;99.90;;;;;;5073553;28;19934;-78
2023/01/05 00:38:47;;;;;;;;;;;12.30;99.90;;;;;;5072410;28;20318;-79
2023/01/05 00:41:13;;;;;;;;;;;12.30;99.90;;;;;;5071858;28;19909;-80
2023/01/05 00:43:38;;;;;;;;;;;12.30;99.90;;;;;;5072099;28;19912;-80
2023/01/05 00:46:04;;;;;;;;;;;12.30;99.90;;;;;;5072168;28;19916;-80
2023/01/05 00:48:29;;;;;;;;;;;12.30;99.90;;;;;;5070721;28;19908;-78
2023/01/05 00:50:55;;;;;;;;;;;12.20;99.90;;;;;;5070362;28;19928;-80
2023/01/05 00:53:20;;;;;;;;;;;12.30;99.90;;;;;;5071877;28;19909;-80
2023/01/05 00:55:54;;;;;;;;;;;12.20;99.90;;;;;;5072167;28;19998;-78
2023/01/05 00:58:19;;;;;;;;;;;12.30;99.90;;;;;;5072070;28;19912;-79
2023/01/05 01:00:45;;;;;;;;;;;12.20;99.90;;;;;;5071895;28;19923;-79
2023/01/05 01:03:10;;;;;;;;;;;12.20;99.90;;;;;;5057506;28;19908;-78
2023/01/05 01:05:36;;;;;;;;;;;12.20;99.90;;;;;;5078495;28;20357;-76
2023/01/05 01:08:01;;;;;;;;;;;12.20;99.90;;;;;;5076971;28;19917;-77
2023/01/05 01:10:27;;;;;;;;;;;12.20;99.90;;;;;;5078459;28;19912;-76
2023/01/05 01:12:53;;;;;;;;;;;12.20;99.90;;;;;;5078002;28;19917;-77
2023/01/05 01:15:18;;;;;;;;;;;12.20;99.90;;;;;;5078449;28;19915;-77
2023/01/05 01:17:45;;;;;;;;;;;12.20;99.90;;;;;;5077751;28;19909;-77
2023/01/05 01:20:10;;;;;;;;;;;12.10;99.90;;;;;;5076247;28;19916;-78
2023/01/05 01:22:36;;;;;;;;;;;12.10;99.90;;;;;;5076968;28;20298;-77
2023/01/05 01:25:02;;;;;;;;;;;12.10;99.90;;;;;;5077179;28;20369;-77
2023/01/05 01:27:28;;;;;;;;;;;12.10;99.90;;;;;;5077014;28;20325;-77
2023/01/05 01:29:54;;;;;;;;;;;12.10;99.90;;;;;;5077824;28;19939;-76
2023/01/05 01:32:19;;;;;;;;;;;12.10;99.90;;;;;;5076884;28;19916;-77
2023/01/05 01:34:45;;;;;;;;;;;12.00;99.90;;;;;;5077492;28;19912;-77
2023/01/05 01:37:10;;;;;;;;;;;12.10;99.90;;;;;;5077153;28;19931;-77
2023/01/05 01:39:36;;;;;;;;;;;12.10;99.90;;;;;;5077267;28;19913;-77
2023/01/05 01:42:01;;;;;;;;;;;12.20;99.90;;;;;;5077035;28;20703;-77
2023/01/05 01:44:46;;;;;;;;;;;12.20;99.90;;;;;;5078007;28;19912;-77
2023/01/05 01:47:14;;;;;;;;;;;12.10;99.90;;;;;;5077051;28;19912;-78
2023/01/05 01:49:40;;;;;;;;;;;12.10;99.90;;;;;;5059160;28;20396;-77
2023/01/05 01:52:06;;;;;;;;;;;12.10;99.90;;;;;;5077555;28;19909;-76
2023/01/05 01:54:31;;;;;;;;;;;12.10;99.90;;;;;;5060014;28;20294;-78
2023/01/05 01:56:57;;;;;;;;;;;12.10;99.90;;;;;;5077860;28;19916;-76
2023/01/05 01:59:22;;;;;;;;;;;12.00;99.90;;;;;;5077314;28;20435;-77
2023/01/05 02:01:50;;;;;;;;;;;12.00;99.90;;;;;;5076721;28;19975;-77
2023/01/05 02:04:15;;;;;;;;;;;12.00;99.90;;;;;;5059242;28;19913;-76
2023/01/05 02:06:41;;;;;;;;;;;12.00;99.90;;;;;;5076594;28;19916;-78
2023/01/05 02:09:06;;;;;;;;;;;12.00;99.90;;;;;;5077226;28;19915;-77
2023/01/05 02:11:50;;;;;;;;;;;12.00;99.90;;;;;;5075416;28;19909;-77
2023/01/05 02:14:28;;;;;;;;;;;12.00;99.90;;;;;;5074689;28;19913;-76
2023/01/05 02:16:56;;;;;;;;;;;12.00;99.90;;;;;;5075985;28;19954;-78
2023/01/05 02:19:40;;;;;;;;;;;12.00;99.90;;;;;;5075530;28;19909;-80
2023/01/05 02:22:12;;;;;;;;;;;12.10;99.90;;;;;;5076482;28;19912;-78
2023/01/05 02:24:56;;;;;;;;;;;12.00;99.90;;;;;;5075301;28;19913;-79
2023/01/05 02:27:30;;;;;;;;;;;12.00;99.90;;;;;;5076636;28;19908;-76
2023/01/05 02:30:04;;;;;;;;;;;11.90;99.90;;;;;;5075468;28;19913;-78
2023/01/05 02:32:33;;;;;;;;;;;11.80;99.90;;;;;;5076443;28;20014;-80
2023/01/05 02:35:07;;;;;;;;;;;11.70;99.90;;;;;;5077030;28;20293;-79
2023/01/05 02:37:52;;;;;;;;;;;11.70;99.90;;;;;;5077346;28;19908;-79
2023/01/05 02:40:20;;;;;;;;;;;11.60;99.90;;;;;;5076464;28;19916;-79
2023/01/05 02:42:48;;;;;;;;;;;11.60;99.90;;;;;;5075879;28;19912;-79
2023/01/05 02:45:14;;;;;;;;;;;11.50;99.90;;;;;;5076107;28;19912;-79
2023/01/05 02:47:41;;;;;;;;;;;11.50;99.90;;;;;;5076118;28;19909;-79
2023/01/05 02:50:15;;;;;;;;;;;11.60;99.90;;;;;;5075825;28;19925;-78
2023/01/05 02:52:56;;;;;;;;;;;11.60;99.90;;;;;;5075414;28;19924;-78
2023/01/05 02:55:31;;;;;;;;;;;11.60;99.90;;;;;;5074622;28;19909;-79
2023/01/05 02:58:02;;;;;;;;;;;11.70;99.90;;;;;;5075967;28;20328;-78
2023/01/05 03:00:29;;;;;;;;;;;11.60;99.90;;;;;;5057803;28;19908;-77
2023/01/05 03:03:01;;;;;;;;;;;11.70;99.90;;;;;;5075511;28;19908;-78
2023/01/05 03:05:30;;;;;;;;;;;11.60;99.90;;;;;;5059105;28;19916;-79
2023/01/05 03:08:05;;;;;;;;;;;11.60;99.90;;;;;;5076855;28;19913;-79
2023/01/05 03:16:04;;;;;;;;;;;11.60;99.90;;;;;;5076444;28;19916;-78
2023/01/05 03:18:30;;;;;;;;;;;11.60;99.90;;;;;;5076271;28;19915;-80
2023/01/05 03:20:55;;;;;;;;;;;11.60;99.90;;;;;;5075984;28;20374;-79
2023/01/05 03:37:23;;;;;;;;;;;11.60;99.90;;;;;;5076500;28;19923;-81
2023/01/05 03:39:48;;;;;;;;;;;11.60;99.90;;;;;;5075367;28;19908;-80
2023/01/05 03:42:14;;;;;;;;;;;11.60;99.90;;;;;;5057484;28;20364;-76
2023/01/05 03:44:42;;;;;;;;;;;11.60;99.90;;;;;;5056769;28;19916;-79
2023/01/05 03:47:08;;;;;;;;;;;11.50;99.90;;;;;;5056842;28;20420;-78
2023/01/05 03:52:01;;;;;;;;;;;11.50;99.90;;;;;;5116465;28;20330;-80
2023/01/05 03:54:27;;;;;;;;;;;11.50;99.90;;;;;;5100392;28;19915;-79
2023/01/05 03:56:52;;;;;;;;;;;11.60;99.90;;;;;;5118053;28;19954;-79
2023/01/05 03:59:18;;;;;;;;;;;11.60;99.90;;;;;;5118314;28;19975;-80
2023/01/05 04:01:44;;;;;;;;;;;11.60;99.90;;;;;;5117847;28;19912;-80
2023/01/05 04:04:09;;;;;;;;;;;11.70;99.90;;;;;;5118265;28;19911;-80
2023/01/05 04:06:35;;;;;;;;;;;11.80;99.90;;;;;;5099851;28;19908;-79
2023/01/05 04:09:00;;;;;;;;;;;11.80;99.90;;;;;;5118441;28;19908;-80
2023/01/05 04:11:25;;;;;;;;;;;11.70;99.90;;;;;;5099208;28;19933;-80
2023/01/05 04:13:51;;;;;;;;;;;11.60;99.90;;;;;;5118051;28;19907;-80
2023/01/05 04:16:16;;;;;;;;;;;11.60;99.90;;;;;;5118842;28;19908;-80
2023/01/05 04:18:42;;;;;;;;;;;11.50;99.90;;;;;;5118083;28;19908;-80
2023/01/05 04:21:08;;;;;;;;;;;11.50;99.90;;;;;;5099643;28;19915;-80
2023/01/05 04:23:33;;;;;;;;;;;11.40;99.90;;;;;;5100030;28;19908;-80
2023/01/05 04:25:59;;;;;;;;;;;11.40;99.90;;;;;;5099467;28;19979;-79
2023/01/05 04:28:24;;;;;;;;;;;11.40;99.90;;;;;;5099470;28;19977;-79
2023/01/05 04:30:50;;;;;;;;;;;11.50;99.90;;;;;;5099267;28;19958;-79
2023/01/05 04:33:16;;;;;;;;;;;11.50;99.90;;;;;;5098955;28;19923;-79
2023/01/05 04:35:42;;;;;;;;;;;11.60;99.90;;;;;;5117785;28;20304;-79
2023/01/05 04:38:07;;;;;;;;;;;11.70;99.90;;;;;;5102184;28;20003;-79
2023/01/05 04:40:32;;;;;;;;;;;11.70;99.90;;;;;;5103107;28;19908;-79
2023/01/05 04:42:58;;;;;;;;;;;11.70;99.90;;;;;;5121728;28;19907;-79
2023/01/05 04:45:23;;;;;;;;;;;11.70;99.90;;;;;;5102751;28;19926;-80
2023/01/05 04:47:50;;;;;;;;;;;11.70;99.90;;;;;;5102684;28;19915;-79
2023/01/05 04:50:15;;;;;;;;;;;11.50;99.90;;;;;;5102963;28;19912;-79
2023/01/05 04:52:41;;;;;;;;;;;11.40;99.90;;;;;;5101494;28;19914;-79
2023/01/05 04:55:06;;;;;;;;;;;11.20;99.90;;;;;;5103053;28;19934;-80
2023/01/05 04:57:32;;;;;;;;;;;11.10;99.90;;;;;;5102746;28;20395;-79
2023/01/05 04:59:57;;;;;;;;;;;11.00;99.90;;;;;;5120823;28;19907;-79
2023/01/05 05:02:23;;;;;;;;;;;11.00;99.90;;;;;;5102064;28;20268;-79
2023/01/05 05:04:48;;;;;;;;;;;10.90;99.90;;;;;;5102639;28;19990;-79
2023/01/05 05:07:14;;;;;;;;;;;10.90;99.90;;;;;;5120340;28;19914;-79
2023/01/05 05:09:39;;;;;;;;;;;10.80;99.90;;;;;;5101909;28;20312;-79
2023/01/05 05:12:05;;;;;;;;;;;10.80;99.90;;;;;;5101836;28;19908;-79
2023/01/05 05:14:30;;;;;;;;;;;10.80;99.90;;;;;;5120074;28;19994;-79
2023/01/05 05:16:56;;;;;;;;;;;10.80;99.90;;;;;;5120643;28;19946;-80
2023/01/05 05:19:21;;;;;;;;;;;10.70;99.90;;;;;;5102096;28;20330;-79
2023/01/05 05:21:47;;;;;;;;;;;10.70;99.90;;;;;;5119816;28;19908;-79
2023/01/05 05:24:12;;;;;;;;;;;10.80;99.90;;;;;;5101470;28;20003;-79
2023/01/05 05:26:38;;;;;;;;;;;10.80;99.90;;;;;;5101570;28;20349;-79
2023/01/05 05:29:03;;;;;;;;;;;10.80;99.90;;;;;;5101642;28;19938;-79
2023/01/05 05:31:28;;;;;;;;;;;10.90;99.90;;;;;;5101362;28;19908;-79
2023/01/05 05:33:54;;;;;;;;;;;10.90;99.90;;;;;;5120010;28;20360;-79
2023/01/05 05:36:19;;;;;;;;;;;10.90;99.90;;;;;;5101111;28;19912;-79
2023/01/05 05:38:45;;;;;;;;;;;10.90;99.90;;;;;;5120034;28;19908;-79
2023/01/05 05:41:10;;;;;;;;;;;11.00;99.90;;;;;;5119138;28;19908;-79
2023/01/05 05:43:36;;;;;;;;;;;11.00;99.90;;;;;;5101535;28;19912;-79
2023/01/05 05:46:02;;;;;;;;;;;11.00;99.90;;;;;;5101463;28;20353;-79
2023/01/05 05:48:27;;;;;;;;;;;11.00;99.90;;;;;;5101292;28;19908;-79
2023/01/05 05:50:53;;;;;;;;;;;11.00;99.90;;;;;;5119294;28;19916;-79
2023/01/05 05:53:18;;;;;;;;;;;11.00;99.90;;;;;;5100808;28;19948;-79
2023/01/05 05:55:48;;;;;;;;;;;11.10;99.90;;;;;;5119375;28;20347;-79
2023/01/05 05:58:13;;;;;;;;;;;11.10;99.90;;;;;;5100460;28;19908;-79
2023/01/05 06:00:39;;;;;;;;;;;11.20;99.90;;;;;;5118775;28;20280;-79
2023/01/05 06:03:04;;;;;;;;;;;11.20;99.90;;;;;;5100665;28;19953;-79
2023/01/05 06:05:30;;;;;;;;;;;11.20;99.90;;;;;;5100753;28;19970;-80
2023/01/05 06:07:55;;;;;;;;;;;11.20;99.90;;;;;;5118760;28;20696;-80
2023/01/05 06:10:21;;;;;;;;;;;11.30;99.90;;;;;;5100791;28;19996;-79
2023/01/05 06:12:46;;;;;;;;;;;11.20;99.90;;;;;;5117708;28;19908;-79
2023/01/05 06:15:12;;;;;;;;;;;11.30;99.90;;;;;;5100177;28;19935;-79
2023/01/05 06:17:37;;;;;;;;;;;11.30;99.90;;;;;;5118116;28;20002;-79
2023/01/05 06:20:03;;;;;;;;;;;11.30;99.90;;;;;;5118313;28;20254;-79
2023/01/05 06:22:29;;;;;;;;;;;11.40;99.90;;;;;;5100195;28;19912;-79
2023/01/05 06:24:54;;;;;;;;;;;11.40;99.90;;;;;;5099929;28;19912;-79
2023/01/05 06:27:20;;;;;;;;;;;11.40;99.90;;;;;;5118342;28;19908;-79
2023/01/05 06:29:45;;;;;;;;;;;11.40;99.90;;;;;;5117844;28;19912;-79
2023/01/05 06:32:11;;;;;;;;;;;11.40;99.90;;;;;;5098687;28;19904;-79
2023/01/05 06:34:36;;;;;;;;;;;11.40;99.90;;;;;;5099130;28;19980;-79
2023/01/05 06:37:02;;;;;;;;;;;11.40;99.90;;;;;;5117906;28;19995;-79
2023/01/05 06:39:27;;;;;;;;;;;11.40;99.90;;;;;;5099468;28;20379;-79
2023/01/05 06:41:52;;;;;;;;;;;11.40;99.90;;;;;;5099094;28;19908;-79
2023/01/05 06:44:18;;;;;;;;;;;11.50;99.90;;;;;;5117842;28;20377;-79
2023/01/05 06:46:43;;;;;;;;;;;11.50;99.90;;;;;;5117698;28;19969;-79
2023/01/05 06:49:10;;;;;;;;;;;11.50;99.90;;;;;;5099230;28;19908;-79
2023/01/05 06:51:36;;;;;;;;;;;11.50;99.90;;;;;;5098958;28;19920;-79
2023/01/05 06:54:01;;;;;;;;;;;11.50;99.90;;;;;;5099312;28;19908;-79
2023/01/05 06:56:27;;;;;;;;;;;11.60;99.90;;;;;;5116749;28;19970;-79
2023/01/05 06:58:52;;;;;;;;;;;11.60;99.90;;;;;;5099013;28;19907;-78
2023/01/05 07:01:18;;;;;;;;;;;11.60;99.90;;;;;;5098206;28;19915;-79
2023/01/05 07:03:44;;;;;;;;;;;11.50;99.90;;;;;;5098408;28;19933;-80
2023/01/05 07:06:12;;;;;;;;;;;11.60;99.90;;;;;;5116943;28;19939;-79
2023/01/05 07:08:38;;;;;;;;;;;11.60;99.90;;;;;;5116853;28;20492;-79
2023/01/05 07:11:03;;;;;;;;;;;11.60;99.90;;;;;;5098079;28;19912;-79
2023/01/05 07:13:29;;;;;;;;;;;11.60;99.90;;;;;;5116778;28;20281;-79
2023/01/05 07:15:54;;;;;;;;;;;11.60;99.90;;;;;;5116490;28;20426;-80
2023/01/05 07:18:19;;;;;;;;;;;11.60;99.90;;;;;;5097775;28;19908;-79
2023/01/05 07:20:45;;;;;;;;;;;11.70;99.90;;;;;;5097732;28;19907;-79
2023/01/05 07:23:10;;;;;;;;;;;11.60;99.90;;;;;;5098122;28;19952;-79
2023/01/05 07:25:36;;;;;;;;;;;11.60;99.90;;;;;;5098527;28;19923;-79
2023/01/05 07:28:01;;;;;;;;;;;11.60;99.90;;;;;;5098185;28;19955;-79
2023/01/05 07:30:27;;;;;;;;;;;11.60;99.90;;;;;;5098251;28;19938;-79
2023/01/05 07:32:56;;;;;;;;;;;11.60;99.90;;;;;;5097669;28;20399;-79
2023/01/05 07:35:21;;;;;;;;;;;11.60;99.90;;;;;;5116729;28;20413;-79
2023/01/05 07:37:47;;;;;;;;;;;11.60;99.90;;;;;;5116061;28;19907;-79
2023/01/05 07:40:12;;;;;;;;;;;11.60;99.90;;;;;;5097221;28;19912;-79
2023/01/05 07:42:38;;;;;;;;;;;11.60;99.90;;;;;;5115803;28;19962;-79
2023/01/05 07:45:04;;;;;;;;;;;11.60;99.90;;;;;;5115829;28;19915;-79
2023/01/05 07:47:30;;;;;;;;;;;11.50;99.90;;;;;;5116163;28;19922;-79
2023/01/05 07:49:55;;;;;;;;;;;11.50;99.90;;;;;;5097310;28;19908;-79
2023/01/05 07:52:21;;;;;;;;;;;11.50;99.90;;;;;;5096799;28;19995;-79
2023/01/05 07:54:46;;;;;;;;;;;11.60;99.90;;;;;;5115604;28;19922;-79
2023/01/05 07:57:12;;;;;;;;;;;11.60;99.90;;;;;;5118563;28;20319;-79
2023/01/05 07:59:37;;;;;;;;;;;11.60;99.90;;;;;;5115948;28;19914;-80
2023/01/05 08:02:02;;;;;;;;;;;11.60;99.90;;;;;;5115646;28;19908;-81
2023/01/05 08:04:28;;;;;;;;;;;11.60;99.90;;;;;;5116167;28;19911;-79
2023/01/05 08:06:53;;;;;;;;;;;11.70;99.90;;;;;;5097744;28;20285;-81
2023/01/05 08:12:03;;;;;;;;;;;11.70;99.90;;;;;;5118203;28;19914;-80
2023/01/05 08:14:28;;;;;;;;;;;11.60;99.90;;;;;;5101735;28;20458;-80
2023/01/05 08:16:53;;;;;;;;;;;11.60;99.90;;;;;;5101684;28;19908;-81
2023/01/05 08:19:19;;;;;;;;;;;11.70;99.90;;;;;;5120146;28;20377;-80
2023/01/05 08:21:44;;;;;;;;;;;11.70;99.90;;;;;;5100848;28;19968;-79
2023/01/05 08:24:10;;;;;;;;;;;11.70;99.90;;;;;;5119057;28;19918;-79
2023/01/05 08:26:35;;;;;;;;;;;11.70;99.90;;;;;;5101779;28;19918;-80
2023/01/05 08:29:01;;;;;;;;;;;11.70;99.90;;;;;;5119688;28;19915;-81
2023/01/05 08:31:28;;;;;;;;;;;11.70;99.90;;;;;;5100711;28;19908;-81
2023/01/05 08:33:54;;;;;;;;;;;11.70;99.90;;;;;;5101289;28;19947;-79
2023/01/05 08:36:20;;;;;;;;;;;11.70;99.90;;;;;;5101008;28;20339;-79
2023/01/05 08:38:48;;;;;;;;;;;11.70;99.90;;;;;;5100953;28;19914;-80
2023/01/05 08:41:15;;;;;;;;;;;11.80;99.90;;;;;;5118391;28;19929;-79
2023/01/05 08:43:40;;;;;;;;;;;11.90;99.90;;;;;;5101054;28;19950;-80
2023/01/05 08:46:06;;;;;;;;;;;11.90;99.90;;;;;;5100886;28;19919;-79
2023/01/05 08:48:31;;;;;;;;;;;12.00;99.90;;;;;;5119222;28;19908;-79
2023/01/05 08:51:02;;;;;;;;;;;12.00;99.90;;;;;;5099649;28;19995;-82
2023/01/05 08:53:28;;;;;;;;;;;12.10;99.90;;;;;;5100416;28;19915;-79
2023/01/05 08:55:53;;;;;;;;;;;12.10;99.90;;;;;;5118692;28;19908;-81
2023/01/05 08:58:18;;;;;;;;;;;12.10;99.90;;;;;;5117500;28;19907;-80
2023/01/05 09:00:44;;;;;;;;;;;12.10;99.90;;;;;;5118148;28;19911;-82
2023/01/05 09:03:09;;;;;;;;;;;12.10;99.90;;;;;;5102172;28;19908;-79
2023/01/05 09:05:35;;;;;;;;;;;12.10;99.90;;;;;;5101900;28;19919;-79
2023/01/05 09:08:00;;;;;;;;;;;12.10;99.90;;;;;;5101648;28;19914;-79
2023/01/05 09:10:26;;;;;;;;;;;12.20;99.90;;;;;;5102425;28;19908;-79
2023/01/05 09:12:51;;;;;;;;;;;12.30;99.90;;;;;;5101941;28;19908;-80
2023/01/05 09:15:17;;;;;;;;;;;12.20;99.90;;;;;;5123420;28;19947;-79
2023/01/05 09:17:42;;;;;;;;;;;12.20;99.90;;;;;;5108456;28;20296;-81
2023/01/05 09:20:08;;;;;;;;;;;12.20;99.90;;;;;;5108368;28;19919;-81
2023/01/05 09:22:34;;;;;;;;;;;12.20;99.90;;;;;;5126182;28;19965;-81
2023/01/05 09:25:00;;;;;;;;;;;12.40;99.90;;;;;;5108153;28;19918;-81
2023/01/05 09:27:26;;;;;;;;;;;12.50;99.90;;;;;;5108639;28;20388;-82
2023/01/05 09:29:51;;;;;;;;;;;12.50;99.90;;;;;;5107848;28;19915;-81
2023/01/05 09:32:17;;;;;;;;;;;12.40;99.90;;;;;;5125517;28;19908;-80
2023/01/05 09:34:42;;;;;;;;;;;12.40;99.90;;;;;;5107438;28;19915;-81
2023/01/05 09:37:08;;;;;;;;;;;12.40;99.90;;;;;;5125471;28;20323;-81
2023/01/05 09:39:33;;;;;;;;;;;12.50;99.90;;;;;;5106589;28;19915;-81
2023/01/05 09:42:00;;;;;;;;;;;12.60;99.90;;;;;;5106560;28;20383;-81
2023/01/05 09:44:36;;;;;;;;;;;12.50;99.90;;;;;;5106757;28;20302;-81
2023/01/05 09:47:05;;;;;;;;;;;12.50;99.90;;;;;;5125212;28;19939;-80
2023/01/05 09:49:31;;;;;;;;;;;12.60;99.90;;;;;;5125433;28;19914;-81
2023/01/05 09:51:59;;;;;;;;;;;12.60;99.90;;;;;;5101810;28;19919;-83
2023/01/05 09:54:26;;;;;;;;;;;12.70;99.90;;;;;;5119720;28;19950;-82
2023/01/05 09:56:52;;;;;;;;;;;12.70;99.90;;;;;;5119640;28;19911;-83
2023/01/05 09:59:22;;;;;;;;;;;12.70;99.90;;;;;;5100836;28;19915;-82
2023/01/05 10:01:49;;;;;;;;;;;12.60;99.90;;;;;;5100937;28;20353;-82
2023/01/05 10:04:20;;;;;;;;;;;12.70;99.90;;;;;;5100410;28;19912;-80
2023/01/05 10:06:48;;;;;;;;;;;12.70;99.90;;;;;;5100209;28;19990;-81
2023/01/05 10:09:18;;;;;;;;;;;12.80;99.90;;;;;;5100446;28;19908;-82
2023/01/05 10:14:44;;;;;;;;;;;12.70;99.90;;;;;;5119144;28;20426;-83
2023/01/05 10:17:12;;;;;;;;;;;12.80;99.90;;;;;;5100275;28;20451;-82
2023/01/05 10:19:38;;;;;;;;;;;12.80;99.90;;;;;;5099377;28;19910;-82
2023/01/05 10:22:06;;;;;;;;;;;12.90;99.90;;;;;;5099288;28;19915;-81
2023/01/05 10:24:34;;;;;;;;;;;13.00;99.90;;;;;;5118253;28;19911;-82
2023/01/05 10:27:10;;;;;;;;;;;13.00;99.90;;;;;;5099571;28;20395;-81
2023/01/05 10:29:42;;;;;;;;;;;13.10;99.90;;;;;;5118038;28;19998;-82
2023/01/05 10:32:24;;;;;;;;;;;13.10;99.90;;;;;;5098581;28;19908;-82
2023/01/05 10:35:03;;;;;;;;;;;13.10;99.90;;;;;;5098595;28;19908;-83
2023/01/05 10:37:48;;;;;;;;;;;13.10;99.90;;;;;;5117968;28;19908;-82
2023/01/05 10:40:21;;;;;;;;;;;13.10;99.90;;;;;;5098802;28;20377;-82
2023/01/05 10:42:53;;;;;;;;;;;13.00;99.90;;;;;;5117249;28;19930;-83
2023/01/05 10:45:18;;;;;;;;;;;13.10;99.90;;;;;;5117370;28;19912;-82
2023/01/05 10:47:45;;;;;;;;;;;13.20;99.90;;;;;;5098727;28;19957;-83
2023/01/05 10:50:29;;;;;;;;;;;13.10;99.90;;;;;;5116547;28;19938;-81
2023/01/05 10:52:55;;;;;;;;;;;13.20;99.90;;;;;;5116610;28;19960;-80
2023/01/05 10:55:21;;;;;;;;;;;13.10;99.90;;;;;;5098794;28;19908;-82
2023/01/05 10:57:47;;;;;;;;;;;13.30;99.90;;;;;;5116978;28;19907;-81
2023/01/05 11:00:14;;;;;;;;;;;13.40;99.90;;;;;;5098398;28;19957;-80
2023/01/05 11:02:41;;;;;;;;;;;13.50;99.90;;;;;;5097447;28;19946;-83
2023/01/05 11:05:10;;;;;;;;;;;13.40;99.90;;;;;;5097983;28;19912;-82
2023/01/05 11:07:47;;;;;;;;;;;13.60;99.90;;;;;;5116271;28;19935;-82
2023/01/05 11:10:38;;;;;;;;;;;13.50;99.90;;;;;;5116155;28;20185;-82
2023/01/05 11:13:23;;;;;;;;;;;13.50;99.90;;;;;;5092430;28;19908;-82
2023/01/05 11:15:52;;;;;;;;;;;13.60;99.90;;;;;;5096997;28;20350;-81
2023/01/05 11:18:37;;;;;;;;;;;13.40;99.90;;;;;;5115750;28;20342;-82
2023/01/05 11:21:11;;;;;;;;;;;13.40;99.90;;;;;;5096656;28;19955;-81
2023/01/05 11:23:39;;;;;;;;;;;13.50;99.90;;;;;;5096842;28;19960;-80
2023/01/05 11:26:18;;;;;;;;;;;13.30;99.90;;;;;;5097580;28;20306;-80
2023/01/05 11:29:05;;;;;;;;;;;13.30;99.90;;;;;;5115779;28;20006;-81
2023/01/05 11:31:33;;;;;;;;;;;13.30;99.90;;;;;;5098773;28;19969;-83
2023/01/05 11:34:06;;;;;;;;;;;13.40;99.90;;;;;;5097370;28;19956;-83
2023/01/05 11:36:31;;;;;;;;;;;13.40;99.90;;;;;;5115412;28;20025;-82
2023/01/05 11:38:57;;;;;;;;;;;13.40;99.90;;;;;;5096675;28;19946;-83
2023/01/05 11:41:23;;;;;;;;;;;13.40;99.90;;;;;;5096714;28;19915;-81
2023/01/05 11:43:49;;;;;;;;;;;13.50;99.90;;;;;;5096439;28;19907;-82
2023/01/05 11:46:16;;;;;;;;;;;13.60;99.90;;;;;;5096160;28;19946;-83
2023/01/05 11:48:48;;;;;;;;;;;13.60;99.90;;;;;;5114878;28;20356;-81
2023/01/05 11:51:34;;;;;;;;;;;13.90;99.90;;;;;;5095586;28;19916;-82
2023/01/05 11:53:59;;;;;;;;;;;14.00;99.90;;;;;;5096185;28;19930;-82
2023/01/05 11:56:25;;;;;;;;;;;13.90;99.90;;;;;;5096352;28;20416;-80
2023/01/05 11:58:53;;;;;;;;;;;13.80;99.90;;;;;;5096136;28;19923;-81
2023/01/05 12:01:38;;;;;;;;;;;13.70;99.90;;;;;;5113970;28;19974;-80
2023/01/05 12:04:15;;;;;;;;;;;13.80;99.90;;;;;;5097243;28;19950;-82
2023/01/05 12:06:44;;;;;;;;;;;13.90;99.90;;;;;;5097578;28;19914;-82
2023/01/05 12:09:19;;;;;;;;;;;14.20;99.90;;;;;;5096617;28;19953;-83
2023/01/05 12:11:47;;;;;;;;;;;14.50;99.90;;;;;;5095179;28;19953;-81
2023/01/05 12:14:20;;;;;;;;;;;14.70;99.90;;;;;;5095910;28;19907;-80
2023/01/05 12:16:45;;;;;;;;;;;14.90;99.90;;;;;;5095647;28;20279;-82
2023/01/05 12:19:11;;;;;;;;;;;14.80;99.90;;;;;;5113957;28;19908;-80
2023/01/05 12:21:38;;;;;;;;;;;14.60;99.90;;;;;;5095146;28;19908;-80
2023/01/05 12:24:22;;;;;;;;;;;14.60;99.90;;;;;;5095438;28;20393;-81
2023/01/05 12:27:00;;;;;;;;;;;14.60;99.90;;;;;;5095591;28;19914;-80
2023/01/05 12:29:47;;;;;;;;;;;14.50;99.90;;;;;;5095209;28;19912;-80
2023/01/05 12:32:31;;;;;;;;;;;14.70;99.90;;;;;;5113733;28;19999;-80
2023/01/05 12:35:15;;;;;;;;;;;14.60;99.90;;;;;;5095381;28;19953;-81
2023/01/05 12:37:56;;;;;;;;;;;15.90;99.90;;;;;;5113446;28;19930;-80
2023/01/05 12:40:22;;;;;;;;;;;17.20;99.90;;;;;;5095094;28;19908;-81
2023/01/05 12:42:50;;;;;;;;;;;19.30;99.90;;;;;;5095105;28;19953;-82
2023/01/05 12:45:25;;;;;;;;;;;19.90;99.90;;;;;;5095112;28;20342;-81
2023/01/05 12:47:58;;;;;;;;;;;20.70;99.90;;;;;;5095132;28;20273;-82
2023/01/05 12:50:31;;;;;;;;;;;19.30;99.90;;;;;;5094866;28;19938;-81
2023/01/05 12:53:06;;;;;;;;;;;18.30;99.90;;;;;;5094746;28;19943;-81
2023/01/05 12:55:44;;;;;;;;;;;17.50;99.90;;;;;;5095760;28;19908;-81
2023/01/05 12:58:15;;;;;;;;;;;17.40;99.90;;;;;;5096727;28;19914;-80
2023/01/05 13:00:47;;;;;;;;;;;16.70;99.90;;;;;;5119813;28;20381;-80
2023/01/05 13:03:15;;;;;;;;;;;16.20;99.90;;;;;;5102150;28;19994;-81
2023/01/05 13:05:55;;;;;;;;;;;15.60;99.90;;;;;;5102217;28;20369;-80
2023/01/05 13:08:23;;;;;;;;;;;15.30;99.90;;;;;;5100968;28;19908;-81
2023/01/05 13:10:52;;;;;;;;;;;15.20;99.90;;;;;;5101319;28;19908;-79
2023/01/05 13:13:38;;;;;;;;;;;15.10;99.90;;;;;;5101469;28;19919;-80
2023/01/05 13:16:18;;;;;;;;;;;15.10;99.90;;;;;;5119107;28;19907;-80
2023/01/05 13:18:55;;;;;;;;;;;15.20;99.90;;;;;;5105835;28;19908;-81
2023/01/05 13:21:21;;;;;;;;;;;15.70;99.90;;;;;;5102929;28;19908;-81
2023/01/05 13:23:50;;;;;;;;;;;16.40;99.90;;;;;;5118624;28;19953;-81
2023/01/05 13:26:17;;;;;;;;;;;16.30;99.90;;;;;;5100296;28;19974;-80
2023/01/05 13:28:45;;;;;;;;;;;15.80;99.90;;;;;;5118616;28;20007;-81
2023/01/05 13:31:10;;;;;;;;;;;16.00;99.90;;;;;;5099967;28;19922;-81
2023/01/05 13:33:51;;;;;;;;;;;16.00;99.90;;;;;;5117845;28;19943;-81
2023/01/05 13:36:24;;;;;;;;;;;16.00;99.90;;;;;;5119023;28;19912;-81
2023/01/05 13:39:05;;;;;;;;;;;15.50;99.90;;;;;;5100327;28;19912;-81
2023/01/05 13:41:46;;;;;;;;;;;15.20;99.90;;;;;;5100132;28;19965;-80
2023/01/05 13:44:14;;;;;;;;;;;14.80;99.90;;;;;;5100026;28;19912;-81
2023/01/05 13:46:49;;;;;;;;;;;14.70;99.90;;;;;;5089845;28;19915;-80
2023/01/05 13:49:28;;;;;;;;;;;14.50;99.90;;;;;;5101411;28;20443;-81
2023/01/05 13:51:53;;;;;;;;;;;14.30;99.90;;;;;;5099733;28;20266;-81
2023/01/05 13:54:34;;;;;;;;;;;14.10;99.90;;;;;;5074689;28;19919;-81
2023/01/05 13:57:07;;;;;;;;;;;13.80;99.90;;;;;;5096192;28;19908;-81
2023/01/05 13:59:34;;;;;;;;;;;13.70;99.90;;;;;;5096974;28;19942;-81
2023/01/05 14:01:59;;;;;;;;;;;13.60;99.90;;;;;;5077773;28;20388;-82
2023/01/05 14:04:30;;;;;;;;;;;13.60;99.90;;;;;;5078849;28;20024;-81
2023/01/05 14:07:10;;;;;;;;;;;13.60;99.90;;;;;;5078620;28;20258;-81
2023/01/05 14:09:41;;;;;;;;;;;13.70;99.90;;;;;;5078113;28;20015;-83
2023/01/05 14:12:07;;;;;;;;;;;13.80;99.90;;;;;;5077810;28;19915;-81
2023/01/05 14:14:51;;;;;;;;;;;13.90;99.90;;;;;;5092477;28;19908;-81
2023/01/05 14:17:37;;;;;;;;;;;13.80;99.90;;;;;;5116924;28;19947;-82
2023/01/05 14:20:06;;;;;;;;;;;13.80;99.90;;;;;;5098363;28;19915;-81
2023/01/05 14:22:34;;;;;;;;;;;13.80;99.90;;;;;;5097921;28;19908;-82
2023/01/05 14:25:18;;;;;;;;;;;13.70;99.90;;;;;;5097476;28;19964;-84
2023/01/05 14:28:10;;;;;;;;;;;13.70;99.90;;;;;;5096587;28;19953;-82
2023/01/05 14:30:35;;;;;;;;;;;13.70;99.90;;;;;;5097962;28;19939;-82
2023/01/05 14:33:04;;;;;;;;;;;13.70;99.90;;;;;;5115369;28;19933;-83
2023/01/05 14:35:31;;;;;;;;;;;13.50;99.90;;;;;;5096469;28;19976;-80
2023/01/05 14:38:01;;;;;;;;;;;13.50;99.90;;;;;;5114257;28;19908;-82
2023/01/05 14:40:41;;;;;;;;;;;13.50;99.90;;;;;;5112554;28;19912;-82
2023/01/05 14:43:23;;;;;;;;;;;13.50;99.90;;;;;;5096615;28;19907;-82
2023/01/05 14:46:09;;;;;;;;;;;13.50;99.90;;;;;;5096231;28;19954;-84
2023/01/05 14:48:36;;;;;;;;;;;13.50;99.90;;;;;;5116858;28;19915;-85
2023/01/05 14:51:06;;;;;;;;;;;13.60;99.90;;;;;;5115146;28;20335;-83
2023/01/05 14:53:36;;;;;;;;;;;13.60;99.90;;;;;;5096323;28;19908;-82
2023/01/05 14:56:02;;;;;;;;;;;13.60;99.90;;;;;;5117099;28;19914;-85
2023/01/05 14:58:34;;;;;;;;;;;13.60;99.90;;;;;;5098231;28;19908;-84
2023/01/05 15:01:01;;;;;;;;;;;13.50;99.90;;;;;;5115456;28;19932;-81
2023/01/05 15:03:26;;;;;;;;;;;13.50;99.90;;;;;;5096063;28;19908;-84
2023/01/05 15:05:55;;;;;;;;;;;13.50;99.90;;;;;;5096245;28;19922;-83